sensor_id;sensor_type;location;lat;lon;timestamp;P1;durP1;ratioP1;P2;durP2;ratioP2
14778;SDS011;7481;53.750;10.570;2022-09-29T00:01:54;14.27;;;11.20;;
14778;SDS011;7481;53.750;10.570;2022-09-29T00:04:41;14.97;;;10.47;;
14778;SDS011;7481;53.750;10.570;2022-09-29T00:07:28;16.97;;;11.13;;
14778;SDS011;7481;53.750;10.570;2022-09-29T00:10:17;13.60;;;9.77;;
14778;SDS011;7481;53.750;10.570;2022-09-29T00:13:04;15.00;;;10.77;;
14778;SDS011;7481;53.750;10.570;2022-09-29T00:15:55;15.17;;;10.27;;
14778;SDS011;7481;53.750;10.570;2022-09-29T00:18:44;16.37;;;11.40;;
14778;SDS011;7481;53.750;10.570;2022-09-29T00:21:31;15.30;;;10.60;;
14778;SDS011;7481;53.750;10.570;2022-09-29T00:24:18;15.77;;;10.87;;
14778;SDS011;7481;53.750;10.570;2022-09-29T00:27:05;16.60;;;11.10;;
14778;SDS011;7481;53.750;10.570;2022-09-29T00:29:52;15.83;;;11.57;;
14778;SDS011;7481;53.750;10.570;2022-09-29T00:32:39;15.37;;;11.17;;
14778;SDS011;7481;53.750;10.570;2022-09-29T00:35:26;16.47;;;10.90;;
14778;SDS011;7481;53.750;10.570;2022-09-29T00:38:13;14.07;;;10.20;;
14778;SDS011;7481;53.750;10.570;2022-09-29T00:41:00;14.80;;;10.60;;
14778;SDS011;7481;53.750;10.570;2022-09-29T00:52:59;17.30;;;11.43;;
14778;SDS011;7481;53.750;10.570;2022-09-29T00:55:51;15.10;;;10.53;;
14778;SDS011;7481;53.750;10.570;2022-09-29T00:58:47;16.80;;;11.13;;
14778;SDS011;7481;53.750;10.570;2022-09-29T01:01:40;18.57;;;11.67;;
14778;SDS011;7481;53.750;10.570;2022-09-29T01:04:27;16.80;;;11.27;;
14778;SDS011;7481;53.750;10.570;2022-09-29T01:07:14;13.93;;;9.83;;
14778;SDS011;7481;53.750;10.570;2022-09-29T01:10:01;14.93;;;10.77;;
14778;SDS011;7481;53.750;10.570;2022-09-29T01:12:48;14.60;;;10.00;;
14778;SDS011;7481;53.750;10.570;2022-09-29T01:15:35;17.27;;;11.30;;
14778;SDS011;7481;53.750;10.570;2022-09-29T01:18:23;17.77;;;11.10;;
14778;SDS011;7481;53.750;10.570;2022-09-29T01:33:56;13.53;;;10.07;;
14778;SDS011;7481;53.750;10.570;2022-09-29T01:37:19;14.70;;;10.27;;
14778;SDS011;7481;53.750;10.570;2022-09-29T01:40:25;15.00;;;10.33;;
14778;SDS011;7481;53.750;10.570;2022-09-29T01:43:24;16.63;;;11.33;;
14778;SDS011;7481;53.750;10.570;2022-09-29T01:46:23;17.50;;;12.23;;
14778;SDS011;7481;53.750;10.570;2022-09-29T01:49:18;19.40;;;12.73;;
14778;SDS011;7481;53.750;10.570;2022-09-29T01:54:59;16.77;;;11.77;;
14778;SDS011;7481;53.750;10.570;2022-09-29T01:57:49;20.50;;;13.97;;
14778;SDS011;7481;53.750;10.570;2022-09-29T02:00:42;21.10;;;14.93;;
14778;SDS011;7481;53.750;10.570;2022-09-29T02:03:48;23.80;;;15.60;;
14778;SDS011;7481;53.750;10.570;2022-09-29T02:06:43;22.20;;;15.03;;
14778;SDS011;7481;53.750;10.570;2022-09-29T02:09:37;23.63;;;15.30;;
14778;SDS011;7481;53.750;10.570;2022-09-29T02:12:28;21.83;;;14.47;;
14778;SDS011;7481;53.750;10.570;2022-09-29T02:15:20;19.03;;;12.73;;
14778;SDS011;7481;53.750;10.570;2022-09-29T02:18:13;17.70;;;11.67;;
14778;SDS011;7481;53.750;10.570;2022-09-29T02:21:06;16.97;;;12.53;;
14778;SDS011;7481;53.750;10.570;2022-09-29T02:23:54;17.17;;;11.40;;
14778;SDS011;7481;53.750;10.570;2022-09-29T02:26:42;16.53;;;11.17;;
14778;SDS011;7481;53.750;10.570;2022-09-29T02:29:31;16.20;;;11.83;;
14778;SDS011;7481;53.750;10.570;2022-09-29T02:32:19;17.37;;;11.77;;
14778;SDS011;7481;53.750;10.570;2022-09-29T02:35:07;17.77;;;11.93;;
14778;SDS011;7481;53.750;10.570;2022-09-29T02:38:03;19.30;;;12.53;;
14778;SDS011;7481;53.750;10.570;2022-09-29T02:41:05;16.60;;;11.17;;
14778;SDS011;7481;53.750;10.570;2022-09-29T02:47:18;19.27;;;11.83;;
14778;SDS011;7481;53.750;10.570;2022-09-29T02:50:42;16.90;;;11.10;;
14778;SDS011;7481;53.750;10.570;2022-09-29T02:57:25;15.10;;;10.00;;
14778;SDS011;7481;53.750;10.570;2022-09-29T03:00:13;16.17;;;11.10;;
14778;SDS011;7481;53.750;10.570;2022-09-29T03:03:03;14.97;;;10.67;;
14778;SDS011;7481;53.750;10.570;2022-09-29T03:05:50;18.27;;;11.70;;
14778;SDS011;7481;53.750;10.570;2022-09-29T03:08:37;17.17;;;11.03;;
14778;SDS011;7481;53.750;10.570;2022-09-29T03:11:24;14.13;;;9.63;;
14778;SDS011;7481;53.750;10.570;2022-09-29T03:14:11;15.17;;;10.50;;
14778;SDS011;7481;53.750;10.570;2022-09-29T03:16:58;16.33;;;11.43;;
14778;SDS011;7481;53.750;10.570;2022-09-29T03:19:45;16.00;;;11.00;;
14778;SDS011;7481;53.750;10.570;2022-09-29T03:22:32;15.53;;;11.07;;
14778;SDS011;7481;53.750;10.570;2022-09-29T03:25:20;15.67;;;11.40;;
14778;SDS011;7481;53.750;10.570;2022-09-29T03:28:09;14.17;;;10.47;;
14778;SDS011;7481;53.750;10.570;2022-09-29T03:31:02;15.53;;;10.57;;
14778;SDS011;7481;53.750;10.570;2022-09-29T03:33:51;15.27;;;10.80;;
14778;SDS011;7481;53.750;10.570;2022-09-29T03:36:37;14.87;;;10.70;;
14778;SDS011;7481;53.750;10.570;2022-09-29T03:39:26;20.85;;;15.27;;
14778;SDS011;7481;53.750;10.570;2022-09-29T03:42:13;16.90;;;13.07;;
14778;SDS011;7481;53.750;10.570;2022-09-29T03:45:01;16.07;;;10.37;;
14778;SDS011;7481;53.750;10.570;2022-09-29T03:47:48;14.20;;;10.23;;
14778;SDS011;7481;53.750;10.570;2022-09-29T03:50:35;14.30;;;9.97;;
14778;SDS011;7481;53.750;10.570;2022-09-29T03:53:22;15.40;;;10.73;;
14778;SDS011;7481;53.750;10.570;2022-09-29T03:56:09;17.23;;;11.37;;
14778;SDS011;7481;53.750;10.570;2022-09-29T03:58:56;15.87;;;11.47;;
14778;SDS011;7481;53.750;10.570;2022-09-29T04:01:43;12.50;;;9.37;;
14778;SDS011;7481;53.750;10.570;2022-09-29T04:04:30;16.40;;;10.67;;
14778;SDS011;7481;53.750;10.570;2022-09-29T04:07:17;11.57;;;8.93;;
14778;SDS011;7481;53.750;10.570;2022-09-29T04:10:04;13.10;;;9.53;;
14778;SDS011;7481;53.750;10.570;2022-09-29T04:12:51;14.83;;;9.20;;
14778;SDS011;7481;53.750;10.570;2022-09-29T04:15:38;16.80;;;10.80;;
14778;SDS011;7481;53.750;10.570;2022-09-29T04:18:25;14.80;;;10.60;;
14778;SDS011;7481;53.750;10.570;2022-09-29T04:21:12;16.23;;;10.80;;
14778;SDS011;7481;53.750;10.570;2022-09-29T04:23:59;17.63;;;10.37;;
14778;SDS011;7481;53.750;10.570;2022-09-29T04:26:46;21.00;;;12.73;;
14778;SDS011;7481;53.750;10.570;2022-09-29T04:29:33;19.90;;;12.93;;
14778;SDS011;7481;53.750;10.570;2022-09-29T04:32:20;18.47;;;12.27;;
14778;SDS011;7481;53.750;10.570;2022-09-29T04:35:07;20.07;;;12.00;;
14778;SDS011;7481;53.750;10.570;2022-09-29T04:37:55;17.63;;;11.47;;
14778;SDS011;7481;53.750;10.570;2022-09-29T04:40:42;14.60;;;11.57;;
14778;SDS011;7481;53.750;10.570;2022-09-29T04:43:30;15.33;;;11.23;;
14778;SDS011;7481;53.750;10.570;2022-09-29T04:46:16;12.83;;;9.60;;
14778;SDS011;7481;53.750;10.570;2022-09-29T04:49:04;15.33;;;10.00;;
14778;SDS011;7481;53.750;10.570;2022-09-29T04:51:51;14.43;;;10.17;;
14778;SDS011;7481;53.750;10.570;2022-09-29T04:54:38;16.47;;;10.00;;
14778;SDS011;7481;53.750;10.570;2022-09-29T04:57:25;16.53;;;10.80;;
14778;SDS011;7481;53.750;10.570;2022-09-29T05:00:12;18.50;;;11.50;;
14778;SDS011;7481;53.750;10.570;2022-09-29T05:02:59;15.03;;;10.73;;
14778;SDS011;7481;53.750;10.570;2022-09-29T05:05:46;18.20;;;11.97;;
14778;SDS011;7481;53.750;10.570;2022-09-29T05:08:33;15.73;;;12.00;;
14778;SDS011;7481;53.750;10.570;2022-09-29T05:11:20;16.30;;;11.83;;
14778;SDS011;7481;53.750;10.570;2022-09-29T05:14:07;16.73;;;12.13;;
14778;SDS011;7481;53.750;10.570;2022-09-29T05:16:55;17.07;;;10.70;;
14778;SDS011;7481;53.750;10.570;2022-09-29T05:19:43;15.33;;;10.00;;
14778;SDS011;7481;53.750;10.570;2022-09-29T05:22:30;14.73;;;10.50;;
14778;SDS011;7481;53.750;10.570;2022-09-29T05:25:17;16.90;;;10.33;;
14778;SDS011;7481;53.750;10.570;2022-09-29T05:28:04;20.15;;;14.38;;
14778;SDS011;7481;53.750;10.570;2022-09-29T05:30:51;15.53;;;11.90;;
14778;SDS011;7481;53.750;10.570;2022-09-29T05:33:38;18.80;;;12.27;;
14778;SDS011;7481;53.750;10.570;2022-09-29T05:36:25;19.17;;;11.53;;
14778;SDS011;7481;53.750;10.570;2022-09-29T05:39:12;14.60;;;11.13;;
14778;SDS011;7481;53.750;10.570;2022-09-29T05:42:03;14.97;;;10.60;;
14778;SDS011;7481;53.750;10.570;2022-09-29T05:44:52;14.20;;;10.20;;
14778;SDS011;7481;53.750;10.570;2022-09-29T05:47:42;17.10;;;11.10;;
14778;SDS011;7481;53.750;10.570;2022-09-29T05:50:29;16.17;;;10.70;;
14778;SDS011;7481;53.750;10.570;2022-09-29T05:53:18;16.73;;;11.30;;
14778;SDS011;7481;53.750;10.570;2022-09-29T05:56:09;17.17;;;11.70;;
14778;SDS011;7481;53.750;10.570;2022-09-29T05:58:57;15.27;;;11.53;;
14778;SDS011;7481;53.750;10.570;2022-09-29T06:01:46;14.40;;;11.27;;
14778;SDS011;7481;53.750;10.570;2022-09-29T06:04:34;14.73;;;10.30;;
14778;SDS011;7481;53.750;10.570;2022-09-29T06:07:26;22.30;;;11.50;;
14778;SDS011;7481;53.750;10.570;2022-09-29T06:10:13;16.47;;;11.47;;
14778;SDS011;7481;53.750;10.570;2022-09-29T06:13:00;17.57;;;10.90;;
14778;SDS011;7481;53.750;10.570;2022-09-29T06:15:48;15.50;;;11.10;;
14778;SDS011;7481;53.750;10.570;2022-09-29T06:18:35;16.97;;;11.30;;
14778;SDS011;7481;53.750;10.570;2022-09-29T06:21:23;16.43;;;11.30;;
14778;SDS011;7481;53.750;10.570;2022-09-29T06:24:11;17.67;;;11.93;;
14778;SDS011;7481;53.750;10.570;2022-09-29T06:26:58;20.27;;;12.37;;
14778;SDS011;7481;53.750;10.570;2022-09-29T06:29:45;19.87;;;11.53;;
14778;SDS011;7481;53.750;10.570;2022-09-29T06:32:32;16.97;;;11.13;;
14778;SDS011;7481;53.750;10.570;2022-09-29T06:35:21;15.60;;;11.83;;
14778;SDS011;7481;53.750;10.570;2022-09-29T06:38:27;18.83;;;12.20;;
14778;SDS011;7481;53.750;10.570;2022-09-29T06:41:14;19.00;;;12.50;;
14778;SDS011;7481;53.750;10.570;2022-09-29T06:44:01;18.60;;;13.13;;
14778;SDS011;7481;53.750;10.570;2022-09-29T06:46:49;23.23;;;13.30;;
14778;SDS011;7481;53.750;10.570;2022-09-29T06:49:36;20.17;;;13.57;;
14778;SDS011;7481;53.750;10.570;2022-09-29T06:52:23;19.97;;;13.73;;
14778;SDS011;7481;53.750;10.570;2022-09-29T06:55:15;17.70;;;12.80;;
14778;SDS011;7481;53.750;10.570;2022-09-29T06:58:02;20.30;;;12.67;;
14778;SDS011;7481;53.750;10.570;2022-09-29T07:00:50;23.53;;;13.67;;
14778;SDS011;7481;53.750;10.570;2022-09-29T07:03:37;22.40;;;15.20;;
14778;SDS011;7481;53.750;10.570;2022-09-29T07:06:24;19.67;;;13.07;;
14778;SDS011;7481;53.750;10.570;2022-09-29T07:09:11;21.87;;;13.50;;
14778;SDS011;7481;53.750;10.570;2022-09-29T07:12:01;22.00;;;14.17;;
14778;SDS011;7481;53.750;10.570;2022-09-29T07:14:48;19.00;;;13.43;;
14778;SDS011;7481;53.750;10.570;2022-09-29T07:17:35;21.37;;;13.47;;
14778;SDS011;7481;53.750;10.570;2022-09-29T07:20:22;21.87;;;13.47;;
14778;SDS011;7481;53.750;10.570;2022-09-29T07:23:10;19.30;;;14.17;;
14778;SDS011;7481;53.750;10.570;2022-09-29T07:25:57;18.40;;;14.20;;
14778;SDS011;7481;53.750;10.570;2022-09-29T07:28:45;19.40;;;13.23;;
14778;SDS011;7481;53.750;10.570;2022-09-29T07:31:32;18.47;;;12.57;;
14778;SDS011;7481;53.750;10.570;2022-09-29T07:34:34;20.40;;;13.90;;
14778;SDS011;7481;53.750;10.570;2022-09-29T07:37:21;19.80;;;13.40;;
14778;SDS011;7481;53.750;10.570;2022-09-29T07:40:08;27.20;;;14.10;;
14778;SDS011;7481;53.750;10.570;2022-09-29T07:42:55;18.10;;;13.27;;
14778;SDS011;7481;53.750;10.570;2022-09-29T07:45:46;17.90;;;13.57;;
14778;SDS011;7481;53.750;10.570;2022-09-29T07:48:34;16.90;;;12.37;;
14778;SDS011;7481;53.750;10.570;2022-09-29T07:51:22;19.30;;;12.50;;
14778;SDS011;7481;53.750;10.570;2022-09-29T07:54:09;17.57;;;13.57;;
14778;SDS011;7481;53.750;10.570;2022-09-29T07:56:57;18.53;;;13.70;;
14778;SDS011;7481;53.750;10.570;2022-09-29T07:59:46;18.13;;;13.50;;
14778;SDS011;7481;53.750;10.570;2022-09-29T08:02:38;18.60;;;13.37;;
14778;SDS011;7481;53.750;10.570;2022-09-29T08:05:25;17.70;;;12.93;;
14778;SDS011;7481;53.750;10.570;2022-09-29T08:08:13;17.10;;;12.13;;
14778;SDS011;7481;53.750;10.570;2022-09-29T08:11:07;23.40;;;14.37;;
14778;SDS011;7481;53.750;10.570;2022-09-29T08:13:59;18.70;;;13.20;;
14778;SDS011;7481;53.750;10.570;2022-09-29T08:16:47;20.53;;;14.17;;
14778;SDS011;7481;53.750;10.570;2022-09-29T08:19:34;27.83;;;17.70;;
14778;SDS011;7481;53.750;10.570;2022-09-29T08:22:21;24.43;;;15.93;;
14778;SDS011;7481;53.750;10.570;2022-09-29T08:25:08;19.50;;;14.53;;
14778;SDS011;7481;53.750;10.570;2022-09-29T08:27:55;22.27;;;15.30;;
14778;SDS011;7481;53.750;10.570;2022-09-29T08:30:42;22.53;;;14.60;;
14778;SDS011;7481;53.750;10.570;2022-09-29T08:33:29;19.87;;;14.20;;
14778;SDS011;7481;53.750;10.570;2022-09-29T08:36:17;19.47;;;14.93;;
14778;SDS011;7481;53.750;10.570;2022-09-29T08:39:05;21.10;;;14.70;;
14778;SDS011;7481;53.750;10.570;2022-09-29T08:44:40;20.63;;;13.53;;
14778;SDS011;7481;53.750;10.570;2022-09-29T08:47:53;17.70;;;13.03;;
14778;SDS011;7481;53.750;10.570;2022-09-29T08:51:03;19.03;;;13.23;;
14778;SDS011;7481;53.750;10.570;2022-09-29T08:53:56;19.53;;;13.03;;
14778;SDS011;7481;53.750;10.570;2022-09-29T08:56:49;18.50;;;13.00;;
14778;SDS011;7481;53.750;10.570;2022-09-29T08:59:36;21.23;;;13.03;;
14778;SDS011;7481;53.750;10.570;2022-09-29T09:12:08;15.60;;;12.00;;
14778;SDS011;7481;53.750;10.570;2022-09-29T09:15:17;16.23;;;12.40;;
14778;SDS011;7481;53.750;10.570;2022-09-29T09:21:24;17.47;;;12.17;;
14778;SDS011;7481;53.750;10.570;2022-09-29T09:24:36;16.43;;;11.83;;
14778;SDS011;7481;53.750;10.570;2022-09-29T09:27:36;17.57;;;12.70;;
14778;SDS011;7481;53.750;10.570;2022-09-29T09:30:33;16.37;;;12.27;;
14778;SDS011;7481;53.750;10.570;2022-09-29T09:33:26;17.00;;;11.67;;
14778;SDS011;7481;53.750;10.570;2022-09-29T09:36:29;17.77;;;12.93;;
14778;SDS011;7481;53.750;10.570;2022-09-29T09:39:21;16.03;;;11.30;;
14778;SDS011;7481;53.750;10.570;2022-09-29T09:42:22;18.13;;;12.30;;
14778;SDS011;7481;53.750;10.570;2022-09-29T09:45:13;17.23;;;12.67;;
14778;SDS011;7481;53.750;10.570;2022-09-29T09:54:27;19.40;;;12.43;;
14778;SDS011;7481;53.750;10.570;2022-09-29T10:03:29;18.47;;;12.63;;
14778;SDS011;7481;53.750;10.570;2022-09-29T10:06:17;15.23;;;11.03;;
14778;SDS011;7481;53.750;10.570;2022-09-29T10:09:04;17.57;;;11.90;;
14778;SDS011;7481;53.750;10.570;2022-09-29T10:11:51;15.63;;;10.70;;
14778;SDS011;7481;53.750;10.570;2022-09-29T10:14:38;15.37;;;10.93;;
14778;SDS011;7481;53.750;10.570;2022-09-29T10:17:31;14.77;;;10.47;;
14778;SDS011;7481;53.750;10.570;2022-09-29T10:20:31;16.33;;;11.63;;
14778;SDS011;7481;53.750;10.570;2022-09-29T10:23:33;14.20;;;10.93;;
14778;SDS011;7481;53.750;10.570;2022-09-29T10:26:25;15.30;;;11.17;;
14778;SDS011;7481;53.750;10.570;2022-09-29T10:32:25;17.03;;;11.97;;
14778;SDS011;7481;53.750;10.570;2022-09-29T10:35:23;15.20;;;10.53;;
14778;SDS011;7481;53.750;10.570;2022-09-29T10:38:23;14.07;;;11.03;;
14778;SDS011;7481;53.750;10.570;2022-09-29T10:41:11;14.23;;;10.10;;
14778;SDS011;7481;53.750;10.570;2022-09-29T10:43:58;13.23;;;9.77;;
14778;SDS011;7481;53.750;10.570;2022-09-29T10:47:06;15.20;;;11.07;;
14778;SDS011;7481;53.750;10.570;2022-09-29T10:56:16;14.23;;;10.00;;
14778;SDS011;7481;53.750;10.570;2022-09-29T10:59:10;12.47;;;10.00;;
14778;SDS011;7481;53.750;10.570;2022-09-29T11:01:58;14.47;;;10.53;;
14778;SDS011;7481;53.750;10.570;2022-09-29T11:04:46;14.97;;;10.13;;
14778;SDS011;7481;53.750;10.570;2022-09-29T11:07:34;13.30;;;10.37;;
14778;SDS011;7481;53.750;10.570;2022-09-29T11:10:31;13.70;;;9.43;;
14778;SDS011;7481;53.750;10.570;2022-09-29T11:16:16;16.83;;;10.70;;
14778;SDS011;7481;53.750;10.570;2022-09-29T11:19:12;16.00;;;9.73;;
14778;SDS011;7481;53.750;10.570;2022-09-29T11:22:11;14.67;;;10.10;;
14778;SDS011;7481;53.750;10.570;2022-09-29T11:31:21;14.30;;;10.00;;
14778;SDS011;7481;53.750;10.570;2022-09-29T11:43:25;14.93;;;8.07;;
14778;SDS011;7481;53.750;10.570;2022-09-29T11:49:46;13.47;;;8.20;;
14778;SDS011;7481;53.750;10.570;2022-09-29T11:59:06;9.30;;;7.63;;
14778;SDS011;7481;53.750;10.570;2022-09-29T12:02:26;9.97;;;7.03;;
14778;SDS011;7481;53.750;10.570;2022-09-29T12:11:53;9.23;;;7.60;;
14778;SDS011;7481;53.750;10.570;2022-09-29T12:18:02;9.50;;;7.23;;
14778;SDS011;7481;53.750;10.570;2022-09-29T12:20:59;12.07;;;7.53;;
14778;SDS011;7481;53.750;10.570;2022-09-29T12:23:47;10.60;;;7.23;;
14778;SDS011;7481;53.750;10.570;2022-09-29T12:26:34;10.70;;;7.80;;
14778;SDS011;7481;53.750;10.570;2022-09-29T12:29:38;9.07;;;7.70;;
14778;SDS011;7481;53.750;10.570;2022-09-29T12:32:33;12.70;;;7.63;;
14778;SDS011;7481;53.750;10.570;2022-09-29T12:35:35;11.77;;;8.07;;
14778;SDS011;7481;53.750;10.570;2022-09-29T12:38:33;10.03;;;7.90;;
14778;SDS011;7481;53.750;10.570;2022-09-29T12:41:27;12.37;;;7.57;;
14778;SDS011;7481;53.750;10.570;2022-09-29T12:44:21;12.63;;;8.33;;
14778;SDS011;7481;53.750;10.570;2022-09-29T12:47:27;11.87;;;8.53;;
14778;SDS011;7481;53.750;10.570;2022-09-29T12:50:32;12.63;;;9.00;;
14778;SDS011;7481;53.750;10.570;2022-09-29T12:53:41;10.60;;;8.47;;
14778;SDS011;7481;53.750;10.570;2022-09-29T12:59:41;10.80;;;8.87;;
14778;SDS011;7481;53.750;10.570;2022-09-29T13:09:24;10.73;;;8.47;;
14778;SDS011;7481;53.750;10.570;2022-09-29T13:15:38;9.97;;;8.20;;
14778;SDS011;7481;53.750;10.570;2022-09-29T13:22:49;9.53;;;7.70;;
14778;SDS011;7481;53.750;10.570;2022-09-29T13:28:51;10.73;;;8.13;;
14778;SDS011;7481;53.750;10.570;2022-09-29T13:31:43;11.47;;;8.43;;
14778;SDS011;7481;53.750;10.570;2022-09-29T13:34:35;10.37;;;8.60;;
14778;SDS011;7481;53.750;10.570;2022-09-29T13:37:25;10.47;;;9.03;;
14778;SDS011;7481;53.750;10.570;2022-09-29T13:40:28;11.23;;;9.00;;
14778;SDS011;7481;53.750;10.570;2022-09-29T13:49:23;10.20;;;8.33;;
14778;SDS011;7481;53.750;10.570;2022-09-29T13:58:35;10.43;;;8.70;;
14778;SDS011;7481;53.750;10.570;2022-09-29T14:01:42;11.57;;;9.37;;
14778;SDS011;7481;53.750;10.570;2022-09-29T14:04:33;10.63;;;8.77;;
14778;SDS011;7481;53.750;10.570;2022-09-29T14:07:38;10.77;;;8.50;;
14778;SDS011;7481;53.750;10.570;2022-09-29T14:13:24;15.97;;;11.73;;
14778;SDS011;7481;53.750;10.570;2022-09-29T14:16:23;16.63;;;12.03;;
14778;SDS011;7481;53.750;10.570;2022-09-29T14:28:08;17.00;;;12.63;;
14778;SDS011;7481;53.750;10.570;2022-09-29T14:30:58;22.73;;;14.47;;
14778;SDS011;7481;53.750;10.570;2022-09-29T14:33:48;16.10;;;12.37;;
14778;SDS011;7481;53.750;10.570;2022-09-29T14:36:38;19.03;;;13.33;;
14778;SDS011;7481;53.750;10.570;2022-09-29T14:39:30;16.23;;;12.27;;
14778;SDS011;7481;53.750;10.570;2022-09-29T14:42:18;17.10;;;12.30;;
14778;SDS011;7481;53.750;10.570;2022-09-29T14:45:05;14.23;;;10.63;;
14778;SDS011;7481;53.750;10.570;2022-09-29T14:48:16;13.30;;;10.07;;
14778;SDS011;7481;53.750;10.570;2022-09-29T14:51:38;17.23;;;11.67;;
14778;SDS011;7481;53.750;10.570;2022-09-29T15:01:19;16.87;;;11.67;;
14778;SDS011;7481;53.750;10.570;2022-09-29T15:04:16;20.10;;;11.70;;
14778;SDS011;7481;53.750;10.570;2022-09-29T15:07:03;15.70;;;11.03;;
14778;SDS011;7481;53.750;10.570;2022-09-29T15:09:54;17.40;;;11.53;;
14778;SDS011;7481;53.750;10.570;2022-09-29T15:12:43;22.57;;;13.27;;
14778;SDS011;7481;53.750;10.570;2022-09-29T15:15:34;22.17;;;13.20;;
14778;SDS011;7481;53.750;10.570;2022-09-29T15:31:06;20.83;;;14.03;;
14778;SDS011;7481;53.750;10.570;2022-09-29T15:33:57;26.33;;;15.40;;
14778;SDS011;7481;53.750;10.570;2022-09-29T15:36:51;25.40;;;16.43;;
14778;SDS011;7481;53.750;10.570;2022-09-29T15:39:42;26.53;;;15.67;;
14778;SDS011;7481;53.750;10.570;2022-09-29T15:42:33;15.17;;;10.20;;
14778;SDS011;7481;53.750;10.570;2022-09-29T15:45:24;14.97;;;10.53;;
14778;SDS011;7481;53.750;10.570;2022-09-29T15:48:12;11.50;;;9.73;;
14778;SDS011;7481;53.750;10.570;2022-09-29T15:51:01;15.37;;;10.33;;
14778;SDS011;7481;53.750;10.570;2022-09-29T15:53:49;12.83;;;10.43;;
14778;SDS011;7481;53.750;10.570;2022-09-29T15:56:37;12.57;;;10.50;;
14778;SDS011;7481;53.750;10.570;2022-09-29T15:59:46;12.47;;;11.10;;
14778;SDS011;7481;53.750;10.570;2022-09-29T16:02:40;10.93;;;9.17;;
14778;SDS011;7481;53.750;10.570;2022-09-29T16:05:29;12.60;;;10.03;;
14778;SDS011;7481;53.750;10.570;2022-09-29T16:08:21;14.63;;;9.73;;
14778;SDS011;7481;53.750;10.570;2022-09-29T16:11:18;10.70;;;9.60;;
14778;SDS011;7481;53.750;10.570;2022-09-29T16:14:20;12.45;;;10.85;;
14778;SDS011;7481;53.750;10.570;2022-09-29T16:17:11;11.20;;;9.33;;
14778;SDS011;7481;53.750;10.570;2022-09-29T16:19:58;11.80;;;8.57;;
14778;SDS011;7481;53.750;10.570;2022-09-29T16:22:46;9.33;;;7.97;;
14778;SDS011;7481;53.750;10.570;2022-09-29T16:25:34;9.57;;;8.33;;
14778;SDS011;7481;53.750;10.570;2022-09-29T16:28:24;11.10;;;8.10;;
14778;SDS011;7481;53.750;10.570;2022-09-29T16:31:16;8.53;;;7.63;;
14778;SDS011;7481;53.750;10.570;2022-09-29T16:37:14;10.53;;;7.70;;
14778;SDS011;7481;53.750;10.570;2022-09-29T16:40:16;9.93;;;8.27;;
14778;SDS011;7481;53.750;10.570;2022-09-29T16:43:04;9.33;;;7.53;;
14778;SDS011;7481;53.750;10.570;2022-09-29T16:45:52;9.73;;;7.90;;
14778;SDS011;7481;53.750;10.570;2022-09-29T16:48:42;9.30;;;7.83;;
14778;SDS011;7481;53.750;10.570;2022-09-29T16:51:30;12.67;;;7.73;;
14778;SDS011;7481;53.750;10.570;2022-09-29T16:54:27;8.83;;;7.93;;
14778;SDS011;7481;53.750;10.570;2022-09-29T16:57:24;10.43;;;8.50;;
14778;SDS011;7481;53.750;10.570;2022-09-29T17:00:18;10.13;;;8.23;;
14778;SDS011;7481;53.750;10.570;2022-09-29T17:03:05;11.30;;;8.60;;
14778;SDS011;7481;53.750;10.570;2022-09-29T17:05:52;10.63;;;8.67;;
14778;SDS011;7481;53.750;10.570;2022-09-29T17:08:40;10.70;;;9.10;;
14778;SDS011;7481;53.750;10.570;2022-09-29T17:11:27;13.07;;;10.10;;
14778;SDS011;7481;53.750;10.570;2022-09-29T17:14:15;11.80;;;10.50;;
14778;SDS011;7481;53.750;10.570;2022-09-29T17:17:03;17.27;;;12.60;;
14778;SDS011;7481;53.750;10.570;2022-09-29T17:19:51;14.23;;;11.10;;
14778;SDS011;7481;53.750;10.570;2022-09-29T17:22:41;13.63;;;10.60;;
14778;SDS011;7481;53.750;10.570;2022-09-29T17:25:31;18.50;;;12.63;;
14778;SDS011;7481;53.750;10.570;2022-09-29T17:28:20;38.53;;;19.37;;
14778;SDS011;7481;53.750;10.570;2022-09-29T17:31:10;21.60;;;13.90;;
14778;SDS011;7481;53.750;10.570;2022-09-29T17:33:58;12.37;;;10.37;;
14778;SDS011;7481;53.750;10.570;2022-09-29T17:36:45;12.33;;;10.47;;
14778;SDS011;7481;53.750;10.570;2022-09-29T17:39:32;10.97;;;8.93;;
14778;SDS011;7481;53.750;10.570;2022-09-29T17:42:19;11.40;;;9.40;;
14778;SDS011;7481;53.750;10.570;2022-09-29T17:45:06;15.63;;;10.60;;
14778;SDS011;7481;53.750;10.570;2022-09-29T17:47:54;11.27;;;9.37;;
14778;SDS011;7481;53.750;10.570;2022-09-29T17:50:42;12.17;;;9.27;;
14778;SDS011;7481;53.750;10.570;2022-09-29T17:53:31;12.47;;;9.30;;
14778;SDS011;7481;53.750;10.570;2022-09-29T17:56:19;10.77;;;9.27;;
14778;SDS011;7481;53.750;10.570;2022-09-29T17:59:11;10.20;;;8.10;;
14778;SDS011;7481;53.750;10.570;2022-09-29T18:02:00;10.57;;;8.80;;
14778;SDS011;7481;53.750;10.570;2022-09-29T18:04:47;12.07;;;8.77;;
14778;SDS011;7481;53.750;10.570;2022-09-29T18:07:35;13.27;;;10.23;;
14778;SDS011;7481;53.750;10.570;2022-09-29T18:10:27;12.67;;;8.93;;
14778;SDS011;7481;53.750;10.570;2022-09-29T18:13:16;10.53;;;8.73;;
14778;SDS011;7481;53.750;10.570;2022-09-29T18:16:04;9.67;;;8.00;;
14778;SDS011;7481;53.750;10.570;2022-09-29T18:18:51;12.03;;;8.90;;
14778;SDS011;7481;53.750;10.570;2022-09-29T18:21:44;10.10;;;8.80;;
14778;SDS011;7481;53.750;10.570;2022-09-29T18:24:32;11.77;;;9.07;;
14778;SDS011;7481;53.750;10.570;2022-09-29T18:27:19;12.93;;;9.50;;
14778;SDS011;7481;53.750;10.570;2022-09-29T18:30:26;12.40;;;9.33;;
14778;SDS011;7481;53.750;10.570;2022-09-29T18:33:16;13.23;;;10.50;;
14778;SDS011;7481;53.750;10.570;2022-09-29T18:36:04;17.63;;;10.60;;
14778;SDS011;7481;53.750;10.570;2022-09-29T18:38:51;16.27;;;12.33;;
14778;SDS011;7481;53.750;10.570;2022-09-29T18:41:38;11.37;;;8.00;;
14778;SDS011;7481;53.750;10.570;2022-09-29T18:44:25;16.63;;;13.07;;
14778;SDS011;7481;53.750;10.570;2022-09-29T18:47:15;15.70;;;13.77;;
14778;SDS011;7481;53.750;10.570;2022-09-29T18:50:05;14.87;;;12.10;;
14778;SDS011;7481;53.750;10.570;2022-09-29T18:53:14;14.10;;;11.60;;
14778;SDS011;7481;53.750;10.570;2022-09-29T18:56:03;14.30;;;11.70;;
14778;SDS011;7481;53.750;10.570;2022-09-29T18:58:50;14.60;;;12.00;;
14778;SDS011;7481;53.750;10.570;2022-09-29T19:01:38;17.13;;;12.77;;
14778;SDS011;7481;53.750;10.570;2022-09-29T19:04:25;14.30;;;12.00;;
14778;SDS011;7481;53.750;10.570;2022-09-29T19:07:13;15.27;;;11.70;;
14778;SDS011;7481;53.750;10.570;2022-09-29T19:10:00;17.00;;;12.87;;
14778;SDS011;7481;53.750;10.570;2022-09-29T19:12:47;17.13;;;13.97;;
14778;SDS011;7481;53.750;10.570;2022-09-29T19:15:36;18.13;;;14.23;;
14778;SDS011;7481;53.750;10.570;2022-09-29T19:18:24;20.97;;;14.57;;
14778;SDS011;7481;53.750;10.570;2022-09-29T19:21:12;19.47;;;14.87;;
14778;SDS011;7481;53.750;10.570;2022-09-29T19:24:00;19.57;;;15.00;;
14778;SDS011;7481;53.750;10.570;2022-09-29T19:26:47;21.37;;;15.30;;
14778;SDS011;7481;53.750;10.570;2022-09-29T19:29:34;21.97;;;14.90;;
14778;SDS011;7481;53.750;10.570;2022-09-29T19:32:21;20.70;;;15.80;;
14778;SDS011;7481;53.750;10.570;2022-09-29T19:35:12;19.20;;;14.63;;
14778;SDS011;7481;53.750;10.570;2022-09-29T19:38:00;21.83;;;16.17;;
14778;SDS011;7481;53.750;10.570;2022-09-29T19:40:48;21.03;;;15.33;;